createdAt,value
2019-06-15T00:01:27.023Z,73.96
2019-06-15T00:03:54.494Z,72.51
2019-06-15T00:06:22.008Z,71.87
2019-06-15T00:08:49.707Z,70.58
2019-06-15T00:11:17.182Z,69.80
2019-06-15T00:13:45.002Z,69.31
2019-06-15T00:16:12.457Z,68.75
2019-06-15T00:18:39.933Z,69.30
2019-06-15T00:21:07.441Z,69.98
2019-06-15T00:23:35.033Z,70.87
2019-06-15T00:26:02.502Z,70.72
2019-06-15T00:28:29.985Z,71.54
2019-06-15T00:30:57.468Z,71.55
2019-06-15T00:33:24.974Z,71.53
2019-06-15T00:35:52.543Z,71.26
2019-06-15T00:38:20.011Z,71.17
2019-06-15T00:40:47.502Z,71.50
2019-06-15T00:43:14.963Z,72.17
2019-06-15T00:45:43.009Z,73.01
2019-06-15T00:48:10.495Z,73.79
2019-06-15T00:50:37.955Z,73.91
2019-06-15T00:53:05.460Z,73.96
2019-06-15T00:55:32.900Z,74.30
2019-06-15T00:58:00.364Z,74.01
2019-06-15T01:00:27.823Z,74.78
2019-06-15T01:02:55.289Z,74.70
2019-06-15T01:05:22.731Z,75.45
2019-06-15T01:07:50.212Z,75.34
2019-06-15T01:10:17.726Z,76.01
2019-06-15T01:12:45.228Z,76.90
2019-06-15T01:15:12.697Z,76.89
2019-06-15T01:17:40.146Z,77.45
2019-06-15T01:20:07.607Z,77.03
2019-06-15T01:22:35.096Z,77.23
2019-06-15T01:25:05.839Z,77.60
2019-06-15T01:27:30.318Z,78.81
2019-06-15T01:29:58.026Z,79.44
2019-06-15T01:32:25.522Z,78.38
2019-06-15T01:34:53.000Z,78.33
2019-06-15T01:37:20.497Z,78.27
2019-06-15T01:39:47.953Z,78.34
2019-06-15T01:42:15.402Z,79.72
2019-06-15T01:44:42.891Z,80.75
2019-06-15T01:47:10.396Z,81.56
2019-06-15T01:49:37.830Z,82.52
2019-06-15T01:52:05.347Z,83.27
2019-06-15T01:54:32.830Z,83.96
2019-06-15T01:57:00.460Z,84.12
2019-06-15T01:59:27.983Z,84.41
2019-06-15T02:01:55.480Z,84.71
2019-06-15T02:04:22.919Z,84.87
2019-06-15T02:06:50.386Z,85.05
2019-06-15T02:09:17.888Z,84.71
2019-06-15T02:11:45.421Z,84.42
2019-06-15T02:14:12.889Z,84.96
2019-06-15T02:16:40.363Z,84.72
2019-06-15T02:19:08.040Z,85.00
2019-06-15T02:21:35.559Z,85.07
2019-06-15T02:24:02.998Z,84.91
2019-06-15T02:26:30.516Z,84.95
2019-06-15T02:28:57.971Z,84.26
2019-06-15T02:31:25.693Z,84.20
2019-06-15T02:33:53.164Z,84.08
2019-06-15T02:36:20.619Z,83.29
2019-06-15T02:38:48.101Z,83.18
2019-06-15T02:41:15.596Z,83.53
2019-06-15T02:43:43.090Z,83.66
2019-06-15T02:46:10.576Z,83.86
2019-06-15T02:48:38.101Z,83.47
2019-06-15T02:51:05.565Z,82.93
2019-06-15T02:53:33.020Z,82.63
2019-06-15T02:56:00.472Z,82.52
2019-06-15T02:58:28.026Z,82.49
2019-06-15T03:01:07.857Z,83.11
2019-06-15T03:03:35.327Z,84.06
2019-06-15T03:06:02.778Z,84.60
2019-06-15T03:08:30.252Z,84.71
2019-06-15T03:10:57.707Z,85.94
2019-06-15T03:13:25.166Z,86.69
2019-06-15T03:15:52.648Z,86.94
2019-06-15T03:18:20.117Z,86.62
2019-06-15T03:20:47.622Z,85.96
2019-06-15T03:23:15.251Z,85.06
2019-06-15T03:25:42.781Z,85.50
2019-06-15T03:28:10.317Z,85.92
2019-06-15T03:30:37.887Z,86.10
2019-06-15T03:33:05.373Z,85.76
2019-06-15T03:35:32.835Z,85.24
2019-06-15T03:38:00.358Z,84.37
2019-06-15T03:40:27.838Z,84.06
2019-06-15T03:42:55.322Z,83.77
2019-06-15T03:45:22.829Z,83.50
2019-06-15T03:47:50.305Z,83.69
2019-06-15T03:50:17.771Z,83.59
2019-06-15T03:52:45.229Z,83.68
2019-06-15T03:55:12.706Z,84.75
2019-06-15T03:57:40.420Z,84.32
2019-06-15T04:00:19.567Z,83.55
2019-06-15T04:02:47.034Z,83.33
2019-06-15T04:05:14.572Z,83.68
2019-06-15T04:07:42.026Z,82.90
2019-06-15T04:10:09.516Z,82.86
2019-06-15T04:12:36.978Z,82.82
2019-06-15T04:15:04.498Z,82.89
2019-06-15T04:17:31.970Z,82.58
2019-06-15T04:19:59.514Z,82.67
2019-06-15T04:22:26.995Z,82.13
2019-06-15T04:24:55.405Z,82.37
2019-06-15T04:27:23.013Z,82.57
2019-06-15T04:29:50.480Z,82.31
2019-06-15T04:32:17.959Z,81.91
2019-06-15T04:34:45.415Z,81.72
2019-06-15T04:37:12.853Z,81.71
2019-06-15T04:39:40.368Z,82.14
2019-06-15T04:42:07.827Z,82.25
2019-06-15T04:44:35.316Z,83.46
2019-06-15T04:47:02.797Z,84.24
2019-06-15T04:49:30.255Z,85.08
2019-06-15T04:51:57.725Z,84.96
2019-06-15T04:54:25.227Z,85.41
2019-06-15T04:56:52.721Z,85.28
2019-06-15T04:59:20.199Z,85.14
2019-06-15T05:01:47.638Z,85.18
2019-06-15T05:04:15.096Z,84.93
2019-06-15T05:06:42.566Z,85.29
2019-06-15T05:09:10.015Z,85.32
2019-06-15T05:11:37.529Z,85.43
2019-06-15T05:14:05.006Z,85.93
2019-06-15T05:16:32.530Z,85.25
2019-06-15T05:19:00.018Z,85.04
2019-06-15T05:21:27.468Z,85.16
2019-06-15T05:23:54.970Z,85.73
2019-06-15T05:26:22.935Z,85.74
2019-06-15T05:28:50.427Z,85.76
2019-06-15T05:31:17.929Z,85.86
2019-06-15T05:33:45.426Z,85.67
2019-06-15T05:36:12.895Z,85.27
2019-06-15T05:38:40.343Z,85.33
2019-06-15T05:41:07.800Z,85.95
2019-06-15T05:43:35.249Z,85.78
2019-06-15T05:46:02.887Z,85.51
2019-06-15T05:48:30.351Z,85.24
2019-06-15T05:50:58.673Z,85.59
2019-06-15T05:53:25.318Z,85.25
2019-06-15T05:55:52.767Z,85.46
2019-06-15T05:58:20.226Z,85.14
2019-06-15T06:00:47.667Z,85.55
2019-06-15T06:03:15.167Z,85.05
2019-06-15T06:05:42.642Z,84.65
2019-06-15T06:08:10.136Z,83.73
2019-06-15T06:10:37.600Z,83.84
2019-06-15T06:13:05.237Z,83.34
2019-06-15T06:15:32.791Z,83.65
2019-06-15T06:18:00.314Z,84.66
2019-06-15T06:20:27.847Z,84.39
2019-06-15T06:22:56.358Z,84.48
2019-06-15T06:25:24.246Z,84.48
2019-06-15T06:27:53.733Z,84.69
2019-06-15T06:30:23.599Z,85.00
2019-06-15T06:32:51.290Z,84.95
2019-06-15T06:35:18.789Z,84.73
2019-06-15T06:37:46.496Z,84.90
2019-06-15T06:40:14.851Z,85.03
2019-06-15T06:42:42.379Z,84.94
2019-06-15T06:45:10.255Z,85.04
2019-06-15T06:47:37.825Z,84.97
2019-06-15T06:50:06.931Z,85.52
2019-06-15T06:52:35.528Z,85.88
2019-06-15T06:55:04.593Z,85.85
2019-06-15T06:57:33.267Z,85.38
2019-06-15T07:00:02.007Z,85.23
2019-06-15T07:02:30.691Z,85.64
2019-06-15T07:04:58.152Z,85.33
2019-06-15T07:07:28.036Z,85.13
2019-06-15T07:09:55.605Z,85.17
2019-06-15T07:12:24.121Z,85.02
2019-06-15T07:14:51.864Z,83.79
2019-06-15T07:17:20.202Z,83.34
2019-06-15T07:19:47.683Z,82.40
2019-06-15T07:22:15.592Z,81.88
2019-06-15T07:24:43.136Z,80.93
2019-06-15T07:27:10.928Z,79.45
2019-06-15T07:29:40.107Z,78.17
2019-06-15T07:32:07.762Z,77.26
2019-06-15T07:34:35.320Z,78.53
2019-06-15T07:37:04.324Z,78.95
2019-06-15T07:39:33.990Z,79.00
2019-06-15T07:42:01.598Z,78.78
2019-06-15T07:44:30.009Z,78.77
2019-06-15T07:46:57.759Z,78.26
2019-06-15T07:49:26.424Z,77.09
2019-06-15T07:51:55.174Z,74.72
2019-06-15T07:54:22.309Z,72.05
2019-06-15T07:56:51.317Z,70.36
2019-06-15T07:59:19.555Z,68.98
2019-06-15T08:01:47.870Z,68.00
2019-06-15T08:04:14.901Z,66.38
2019-06-15T08:06:43.074Z,65.44
2019-06-15T08:09:12.043Z,64.78
2019-06-15T08:11:39.326Z,64.94
2019-06-15T08:14:06.674Z,63.65
2019-06-15T08:16:35.244Z,62.63
2019-06-15T08:19:03.280Z,62.43
2019-06-15T08:21:31.345Z,61.32
2019-06-15T08:24:04.732Z,61.40
2019-06-15T08:26:28.903Z,61.83
2019-06-15T08:31:37.996Z,62.13
2019-06-15T08:34:05.364Z,61.91
2019-06-15T08:36:35.530Z,61.71
2019-06-15T08:39:04.431Z,61.44
2019-06-15T08:41:32.374Z,61.25
2019-06-15T08:44:01.255Z,60.26
2019-06-15T08:46:29.172Z,59.47
2019-06-15T08:48:57.227Z,58.54
2019-06-15T08:51:24.991Z,57.80
2019-06-15T08:53:52.297Z,58.28
2019-06-15T08:56:20.716Z,59.65
2019-06-15T08:58:55.557Z,58.55
2019-06-15T09:01:15.769Z,58.22
2019-06-15T09:03:43.396Z,57.72
2019-06-15T09:06:11.091Z,56.63
2019-06-15T09:08:39.335Z,56.08
2019-06-15T09:11:07.901Z,56.20
2019-06-15T09:13:36.103Z,54.23
2019-06-15T09:16:05.395Z,53.53
2019-06-15T09:18:34.713Z,53.84
2019-06-15T09:21:02.402Z,56.79
2019-06-15T09:23:30.567Z,57.56
2019-06-15T09:25:58.810Z,56.82
2019-06-15T09:28:28.399Z,56.13
2019-06-15T09:30:56.301Z,56.42
2019-06-15T09:33:23.933Z,54.79
2019-06-15T09:35:51.464Z,54.55
2019-06-15T09:38:19.444Z,54.60
2019-06-15T09:40:47.106Z,54.53
2019-06-15T09:43:14.627Z,55.01
2019-06-15T09:45:42.420Z,54.94
2019-06-15T09:48:10.190Z,54.26
2019-06-15T09:50:39.443Z,54.49
2019-06-15T09:53:07.606Z,54.75
2019-06-15T09:55:35.293Z,54.63
2019-06-15T09:58:03.908Z,54.07
2019-06-15T10:00:33.696Z,53.37
2019-06-15T10:03:03.359Z,52.44
2019-06-15T10:05:30.923Z,52.82
2019-06-15T10:08:00.894Z,52.58
2019-06-15T10:10:29.511Z,52.69
2019-06-15T10:12:58.589Z,51.67
2019-06-15T10:15:29.155Z,51.34
2019-06-15T10:17:57.855Z,50.56
2019-06-15T10:20:27.602Z,50.38
2019-06-15T10:22:55.025Z,50.23
2019-06-15T10:25:22.972Z,49.64
2019-06-15T10:27:50.525Z,49.63
2019-06-15T10:30:18.407Z,48.64
2019-06-15T10:32:45.951Z,48.52
2019-06-15T10:35:14.744Z,48.73
2019-06-15T10:37:44.302Z,48.49
2019-06-15T10:40:13.892Z,46.94
2019-06-15T10:42:42.651Z,45.68
2019-06-15T10:45:12.425Z,45.34
2019-06-15T10:47:40.860Z,44.89
2019-06-15T10:50:10.625Z,45.42
2019-06-15T10:52:38.156Z,44.45
2019-06-15T10:55:06.581Z,43.60
2019-06-15T10:57:34.297Z,45.72
2019-06-15T11:00:02.288Z,46.82
2019-06-15T11:02:31.003Z,47.22
2019-06-15T11:04:58.826Z,46.44
2019-06-15T11:07:27.209Z,46.34
2019-06-15T11:09:54.206Z,45.45
2019-06-15T11:12:21.915Z,44.88
2019-06-15T11:14:49.540Z,43.86
2019-06-15T11:17:20.134Z,43.79
2019-06-15T11:19:48.006Z,44.01
2019-06-15T11:22:15.493Z,45.51
2019-06-15T11:24:43.026Z,44.26
2019-06-15T11:27:11.158Z,44.07
2019-06-15T11:29:40.451Z,43.79
2019-06-15T11:32:09.062Z,43.00
2019-06-15T11:34:36.057Z,43.10
2019-06-15T11:37:03.485Z,43.15
2019-06-15T11:39:30.960Z,42.50
2019-06-15T11:41:58.178Z,41.91
2019-06-15T11:44:26.061Z,42.16
2019-06-15T11:46:53.990Z,42.37
2019-06-15T11:49:22.169Z,42.59
2019-06-15T11:51:51.857Z,41.61
2019-06-15T11:54:21.203Z,41.61
2019-06-15T11:56:50.061Z,41.19
2019-06-15T11:59:19.509Z,41.52
2019-06-15T12:01:48.097Z,41.72
2019-06-15T12:04:17.346Z,41.83
2019-06-15T12:06:44.999Z,41.18
2019-06-15T12:09:12.765Z,41.68
2019-06-15T12:11:42.093Z,41.40
2019-06-15T12:14:13.226Z,40.91
2019-06-15T12:16:41.238Z,40.36
2019-06-15T12:19:13.795Z,39.70
2019-06-15T12:21:40.837Z,40.70
2019-06-15T12:24:08.305Z,41.67
2019-06-15T12:26:36.113Z,41.84
2019-06-15T12:29:03.710Z,42.55
2019-06-15T12:31:31.322Z,42.12
2019-06-15T12:33:58.540Z,42.22
2019-06-15T12:36:26.018Z,42.77
2019-06-15T12:41:27.444Z,41.49
2019-06-15T12:43:54.946Z,40.72
2019-06-15T12:46:23.422Z,40.45
2019-06-15T12:48:50.990Z,40.43
2019-06-15T12:51:18.745Z,39.50
2019-06-15T12:53:46.268Z,40.07
2019-06-15T12:56:15.111Z,40.37
2019-06-15T12:58:42.619Z,41.27
2019-06-15T13:01:10.217Z,41.37
2019-06-15T13:03:37.670Z,41.33
2019-06-15T13:06:05.143Z,42.17
2019-06-15T13:08:32.825Z,42.03
2019-06-15T13:11:00.274Z,41.70
2019-06-15T13:13:29.348Z,41.50
2019-06-15T13:15:56.860Z,40.57
2019-06-15T13:18:24.860Z,39.74
2019-06-15T13:20:52.475Z,39.56
2019-06-15T13:23:20.971Z,39.73
2019-06-15T13:25:52.737Z,40.47
2019-06-15T13:28:20.493Z,41.46
2019-06-15T13:30:48.773Z,42.02
2019-06-15T13:33:16.408Z,43.34
2019-06-15T13:35:44.315Z,44.90
2019-06-15T13:38:11.858Z,45.86
2019-06-15T13:40:39.364Z,45.02
2019-06-15T13:43:06.894Z,44.82
2019-06-15T13:45:34.025Z,47.26
2019-06-15T13:48:01.062Z,48.81
2019-06-15T13:50:28.149Z,49.62
2019-06-15T13:52:55.473Z,50.50
2019-06-15T13:55:22.512Z,50.48
2019-06-15T13:57:49.543Z,51.26
2019-06-15T14:00:17.055Z,51.77
2019-06-15T14:02:44.474Z,52.10
2019-06-15T14:05:12.598Z,51.06
2019-06-15T14:07:40.347Z,51.04
2019-06-15T14:10:08.515Z,51.29
2019-06-15T14:12:36.410Z,51.80
2019-06-15T14:15:04.243Z,52.93
2019-06-15T14:17:39.781Z,54.12
2019-06-15T14:20:05.480Z,54.51
2019-06-15T14:22:32.794Z,54.99
2019-06-15T14:24:59.889Z,55.69
2019-06-15T14:27:28.213Z,56.29
2019-06-15T14:29:56.021Z,56.97
2019-06-15T14:32:25.742Z,56.97
2019-06-15T14:34:53.223Z,57.47
2019-06-15T14:37:21.035Z,60.24
2019-06-15T14:39:48.856Z,77.36
2019-06-15T14:42:16.732Z,87.03
2019-06-15T14:44:44.258Z,93.33
2019-06-15T14:47:11.987Z,93.92
2019-06-15T14:49:39.785Z,94.67
2019-06-15T14:52:07.878Z,98.71
2019-06-15T14:54:37.278Z,100.00
2019-06-15T14:57:03.146Z,100.00
2019-06-15T14:59:31.339Z,100.00
2019-06-15T15:02:09.984Z,100.00
2019-06-15T15:04:27.024Z,100.00
2019-06-15T15:06:56.541Z,100.00
2019-06-15T15:09:23.043Z,100.00
2019-06-15T15:11:52.646Z,100.00
2019-06-15T15:14:20.309Z,100.00
2019-06-15T15:16:51.090Z,100.00
2019-06-15T15:19:19.752Z,100.00
2019-06-15T15:21:47.517Z,100.00
2019-06-15T15:24:17.685Z,100.00
2019-06-15T15:26:47.009Z,100.00
2019-06-15T15:29:12.912Z,100.00
2019-06-15T15:31:40.630Z,100.00
2019-06-15T15:34:08.818Z,100.00
2019-06-15T15:36:36.840Z,100.00
2019-06-15T15:39:06.092Z,100.00
2019-06-15T15:41:31.663Z,100.00
2019-06-15T15:44:03.949Z,100.00
2019-06-15T15:46:31.471Z,99.08
2019-06-15T15:48:58.915Z,98.69
2019-06-15T15:51:26.505Z,98.29
2019-06-15T15:53:56.706Z,96.66
2019-06-15T15:56:23.227Z,97.16
2019-06-15T15:58:50.892Z,96.60
2019-06-15T16:01:19.011Z,93.74
2019-06-15T16:03:47.660Z,90.75
2019-06-15T16:06:15.999Z,89.08
2019-06-15T16:08:46.986Z,87.37
2019-06-15T16:11:12.532Z,87.00
2019-06-15T16:13:40.837Z,85.72
2019-06-15T16:16:09.516Z,86.13
2019-06-15T16:18:37.952Z,86.79
2019-06-15T16:21:06.449Z,87.23
2019-06-15T16:23:33.003Z,88.46
2019-06-15T16:26:00.619Z,87.55
2019-06-15T16:28:32.898Z,87.54
2019-06-15T16:31:09.233Z,87.77
2019-06-15T16:33:28.969Z,87.74
2019-06-15T16:36:00.275Z,87.74
2019-06-15T16:38:28.271Z,87.64
2019-06-15T16:40:56.118Z,87.25
2019-06-15T16:43:25.302Z,89.29
2019-06-15T16:45:51.032Z,88.96
2019-06-15T16:48:18.658Z,89.25
2019-06-15T16:50:46.928Z,88.21
2019-06-15T16:53:16.668Z,88.15
2019-06-15T16:55:42.171Z,88.47
2019-06-15T16:58:10.566Z,86.95
2019-06-15T17:00:41.334Z,85.94
2019-06-15T17:03:21.077Z,85.05
2019-06-15T17:05:36.949Z,83.93
2019-06-15T17:08:06.697Z,83.58
2019-06-15T17:10:40.571Z,84.61
2019-06-15T17:13:08.367Z,83.78
2019-06-15T17:15:37.105Z,83.21
2019-06-15T17:18:04.143Z,83.73
2019-06-15T17:20:37.442Z,81.29
2019-06-15T17:23:06.759Z,81.47
2019-06-15T17:25:32.583Z,81.22
2019-06-15T17:28:00.092Z,81.02
2019-06-15T17:30:27.679Z,80.15
2019-06-15T17:32:56.707Z,79.46
2019-06-15T17:35:23.059Z,79.97
2019-06-15T17:37:50.729Z,80.78
2019-06-15T17:40:19.145Z,81.14
2019-06-15T17:42:46.654Z,79.90
2019-06-15T17:45:16.127Z,80.08
2019-06-15T17:47:41.799Z,80.12
2019-06-15T17:50:10.001Z,80.63
2019-06-15T17:52:37.910Z,80.07
2019-06-15T17:55:07.196Z,81.31
2019-06-15T17:57:36.012Z,80.78
2019-06-15T18:00:02.370Z,80.45
2019-06-15T18:02:29.807Z,81.21
2019-06-15T18:04:57.583Z,82.70
2019-06-15T18:07:26.343Z,82.40
2019-06-15T18:09:58.978Z,81.27
2019-06-15T18:12:26.927Z,81.79
2019-06-15T18:14:53.970Z,81.94
2019-06-15T18:17:21.629Z,82.87
2019-06-15T18:19:49.153Z,82.87
2019-06-15T18:22:17.138Z,83.04
2019-06-15T18:24:46.505Z,83.72
2019-06-15T18:27:11.869Z,84.44
2019-06-15T18:29:39.376Z,84.33
2019-06-15T18:32:06.872Z,84.07
2019-06-15T18:34:36.795Z,83.09
2019-06-15T18:37:02.680Z,83.52
2019-06-15T18:39:30.255Z,84.49
2019-06-15T18:41:57.947Z,84.37
2019-06-15T18:44:26.915Z,83.62
2019-06-15T18:46:53.005Z,83.88
2019-06-15T18:49:20.493Z,83.65
2019-06-15T18:51:48.048Z,84.92
2019-06-15T18:54:15.998Z,85.31
2019-06-15T18:56:42.973Z,85.96
2019-06-15T18:59:10.456Z,85.04
2019-06-15T19:01:38.039Z,85.62
2019-06-15T19:04:06.760Z,84.75
2019-06-15T19:06:33.678Z,85.75
2019-06-15T19:09:01.219Z,86.44
2019-06-15T19:11:28.967Z,87.02
2019-06-15T19:13:56.634Z,87.04
2019-06-15T19:16:25.756Z,87.77
2019-06-15T19:18:53.223Z,85.92
2019-06-15T19:21:22.215Z,86.00
2019-06-15T19:23:49.779Z,84.76
2019-06-15T19:26:17.669Z,85.04
2019-06-15T19:28:45.949Z,85.26
2019-06-15T19:31:12.767Z,85.67
2019-06-15T19:33:41.980Z,86.21
2019-06-15T19:36:09.563Z,85.41
2019-06-15T19:38:37.267Z,85.56
2019-06-15T19:41:06.913Z,86.14
2019-06-15T19:43:36.130Z,86.62
2019-06-15T19:46:01.651Z,87.25
2019-06-15T19:48:29.123Z,87.21
2019-06-15T19:50:57.697Z,87.33
2019-06-15T19:53:27.288Z,85.96
2019-06-15T19:55:57.155Z,84.89
2019-06-15T19:58:22.380Z,85.19
2019-06-15T20:00:49.898Z,85.45
2019-06-15T20:03:17.361Z,85.70
2019-06-15T20:05:46.173Z,85.53
2019-06-15T20:08:13.047Z,85.49
2019-06-15T20:10:40.677Z,84.84
2019-06-15T20:13:08.416Z,84.68
2019-06-15T20:15:37.820Z,85.48
2019-06-15T20:18:06.679Z,85.69
2019-06-15T20:20:31.608Z,85.83
2019-06-15T20:22:59.314Z,85.46
2019-06-15T20:25:26.971Z,85.60
2019-06-15T20:27:56.418Z,86.07
2019-06-15T20:30:22.220Z,86.49
2019-06-15T20:32:50.332Z,87.58
2019-06-15T20:35:21.197Z,88.46
2019-06-15T20:37:46.503Z,88.61
2019-06-15T20:40:16.509Z,88.59
2019-06-15T20:42:42.182Z,88.91
2019-06-15T20:45:10.041Z,89.01
2019-06-15T20:47:37.491Z,89.10
2019-06-15T20:50:07.674Z,88.77
2019-06-15T20:52:36.824Z,88.89
2019-06-15T20:55:06.446Z,89.24
2019-06-15T20:57:31.673Z,89.55
2019-06-15T20:59:59.139Z,89.30
2019-06-15T21:02:27.147Z,89.62
2019-06-15T21:05:00.623Z,89.83
2019-06-15T21:07:28.096Z,89.56
2019-06-15T21:09:57.402Z,89.80
2019-06-15T21:12:23.036Z,90.42
2019-06-15T21:14:50.528Z,90.99
2019-06-15T21:17:18.006Z,91.21
2019-06-15T21:19:46.577Z,91.30
2019-06-15T21:22:13.002Z,91.49
2019-06-15T21:24:40.553Z,92.00
2019-06-15T21:27:09.256Z,92.32
2019-06-15T21:29:42.116Z,92.42
2019-06-15T21:32:09.904Z,92.23
2019-06-15T21:34:39.596Z,91.89
2019-06-15T21:37:08.420Z,92.01
2019-06-15T21:39:36.963Z,92.18
2019-06-15T21:42:05.054Z,92.39
2019-06-15T21:44:32.644Z,92.55
2019-06-15T21:47:00.121Z,92.15
2019-06-15T21:49:27.779Z,91.64
2019-06-15T21:51:56.400Z,91.88
2019-06-15T21:54:23.653Z,92.24
2019-06-15T21:56:51.558Z,92.22
2019-06-15T21:59:19.254Z,92.89
2019-06-15T22:01:47.077Z,93.36
2019-06-15T22:04:16.606Z,93.15
2019-06-15T22:06:42.435Z,93.17
2019-06-15T22:09:09.934Z,93.13
2019-06-15T22:11:37.568Z,93.32
2019-06-15T22:14:06.382Z,93.47
2019-06-15T22:16:34.259Z,93.85
2019-06-15T22:19:02.331Z,94.16
2019-06-15T22:21:30.585Z,94.13
2019-06-15T22:23:58.632Z,93.87
2019-06-15T22:26:27.208Z,93.70
2019-06-15T22:28:56.925Z,93.39
2019-06-15T22:31:25.347Z,93.06
2019-06-15T22:33:52.830Z,92.74
2019-06-15T22:36:25.339Z,93.03
2019-06-15T22:38:49.225Z,93.00
2019-06-15T22:41:18.334Z,93.29
2019-06-15T22:43:46.715Z,93.03
2019-06-15T22:46:16.427Z,93.44
2019-06-15T22:48:42.160Z,93.54
2019-06-15T22:51:10.954Z,93.68
2019-06-15T22:53:39.137Z,93.75
2019-06-15T22:56:06.857Z,93.88
2019-06-15T22:58:37.583Z,93.70
2019-06-15T23:01:06.327Z,93.64
2019-06-15T23:03:34.375Z,93.54
2019-06-15T23:06:03.181Z,93.49
2019-06-15T23:08:30.935Z,93.41
2019-06-15T23:10:58.910Z,93.40
2019-06-15T23:13:26.585Z,93.43
2019-06-15T23:15:56.432Z,93.30
2019-06-15T23:18:24.089Z,93.10
2019-06-15T23:20:53.551Z,93.48
2019-06-15T23:23:22.519Z,94.05
2019-06-15T23:25:51.157Z,93.79
2019-06-15T23:28:19.422Z,93.79
2019-06-15T23:30:47.950Z,93.95
2019-06-15T23:36:11.274Z,90.44
2019-06-15T23:38:39.350Z,91.22
2019-06-15T23:41:08.078Z,91.96
2019-06-15T23:43:37.425Z,92.03
2019-06-15T23:46:06.680Z,92.96
2019-06-15T23:48:32.416Z,93.18
2019-06-15T23:51:01.262Z,93.12
2019-06-15T23:53:31.107Z,92.86
2019-06-15T23:55:59.417Z,93.06
2019-06-15T23:58:29.935Z,93.38
